sensor_id;sensor_type;location;lat;lon;timestamp;P1;durP1;ratioP1;P2;durP2;ratioP2
18612;SDS011;9436;52.152;21.032;2022-10-26T00:00:21;15.93;;;13.83;;
18612;SDS011;9436;52.152;21.032;2022-10-26T00:02:48;15.00;;;13.50;;
18612;SDS011;9436;52.152;21.032;2022-10-26T00:05:15;15.50;;;12.67;;
18612;SDS011;9436;52.152;21.032;2022-10-26T00:07:42;15.67;;;13.93;;
18612;SDS011;9436;52.152;21.032;2022-10-26T00:10:09;17.13;;;13.23;;
18612;SDS011;9436;52.152;21.032;2022-10-26T00:12:37;16.77;;;13.93;;
18612;SDS011;9436;52.152;21.032;2022-10-26T00:15:05;15.63;;;13.33;;
18612;SDS011;9436;52.152;21.032;2022-10-26T00:17:32;18.13;;;13.77;;
18612;SDS011;9436;52.152;21.032;2022-10-26T00:20:00;16.07;;;13.10;;
18612;SDS011;9436;52.152;21.032;2022-10-26T00:22:27;14.73;;;13.03;;
18612;SDS011;9436;52.152;21.032;2022-10-26T00:24:54;15.03;;;13.40;;
18612;SDS011;9436;52.152;21.032;2022-10-26T00:27:21;15.63;;;14.03;;
18612;SDS011;9436;52.152;21.032;2022-10-26T00:29:49;15.50;;;13.20;;
18612;SDS011;9436;52.152;21.032;2022-10-26T00:32:16;16.63;;;13.13;;
18612;SDS011;9436;52.152;21.032;2022-10-26T00:34:43;14.87;;;13.37;;
18612;SDS011;9436;52.152;21.032;2022-10-26T00:37:10;17.03;;;14.43;;
18612;SDS011;9436;52.152;21.032;2022-10-26T00:39:37;15.93;;;14.20;;
18612;SDS011;9436;52.152;21.032;2022-10-26T00:42:04;15.40;;;13.63;;
18612;SDS011;9436;52.152;21.032;2022-10-26T00:44:53;16.73;;;14.93;;
18612;SDS011;9436;52.152;21.032;2022-10-26T00:47:36;16.80;;;14.90;;
18612;SDS011;9436;52.152;21.032;2022-10-26T00:50:07;18.27;;;15.30;;
18612;SDS011;9436;52.152;21.032;2022-10-26T00:52:36;18.10;;;14.60;;
18612;SDS011;9436;52.152;21.032;2022-10-26T00:55:05;17.97;;;14.20;;
18612;SDS011;9436;52.152;21.032;2022-10-26T00:57:33;16.83;;;15.07;;
18612;SDS011;9436;52.152;21.032;2022-10-26T01:00:03;17.70;;;15.80;;
18612;SDS011;9436;52.152;21.032;2022-10-26T01:02:31;16.20;;;14.50;;
18612;SDS011;9436;52.152;21.032;2022-10-26T01:04:59;19.10;;;17.00;;
18612;SDS011;9436;52.152;21.032;2022-10-26T01:07:29;18.27;;;16.17;;
18612;SDS011;9436;52.152;21.032;2022-10-26T01:09:57;18.37;;;16.47;;
18612;SDS011;9436;52.152;21.032;2022-10-26T01:12:25;20.57;;;17.80;;
18612;SDS011;9436;52.152;21.032;2022-10-26T01:14:52;21.07;;;17.87;;
18612;SDS011;9436;52.152;21.032;2022-10-26T01:17:28;21.63;;;17.10;;
18612;SDS011;9436;52.152;21.032;2022-10-26T01:20:14;19.97;;;17.87;;
18612;SDS011;9436;52.152;21.032;2022-10-26T01:23:05;20.30;;;18.03;;
18612;SDS011;9436;52.152;21.032;2022-10-26T01:28:33;19.60;;;17.07;;
18612;SDS011;9436;52.152;21.032;2022-10-26T01:31:17;20.43;;;18.13;;
18612;SDS011;9436;52.152;21.032;2022-10-26T01:33:53;19.33;;;17.33;;
18612;SDS011;9436;52.152;21.032;2022-10-26T01:36:27;20.67;;;18.57;;
18612;SDS011;9436;52.152;21.032;2022-10-26T01:39:00;20.47;;;18.20;;
18612;SDS011;9436;52.152;21.032;2022-10-26T01:41:34;19.23;;;17.30;;
18612;SDS011;9436;52.152;21.032;2022-10-26T01:44:05;19.93;;;16.53;;
18612;SDS011;9436;52.152;21.032;2022-10-26T01:46:38;17.80;;;16.00;;
18612;SDS011;9436;52.152;21.032;2022-10-26T01:49:09;18.63;;;16.70;;
18612;SDS011;9436;52.152;21.032;2022-10-26T01:51:38;17.67;;;15.73;;
18612;SDS011;9436;52.152;21.032;2022-10-26T01:54:06;17.83;;;15.93;;
18612;SDS011;9436;52.152;21.032;2022-10-26T01:56:35;18.20;;;16.17;;
18612;SDS011;9436;52.152;21.032;2022-10-26T01:59:12;17.43;;;15.70;;
18612;SDS011;9436;52.152;21.032;2022-10-26T02:02:14;16.97;;;15.23;;
18612;SDS011;9436;52.152;21.032;2022-10-26T02:04:57;17.83;;;15.90;;
18612;SDS011;9436;52.152;21.032;2022-10-26T02:07:44;17.80;;;14.73;;
18612;SDS011;9436;52.152;21.032;2022-10-26T02:10:20;19.90;;;15.37;;
18612;SDS011;9436;52.152;21.032;2022-10-26T02:12:57;16.70;;;14.23;;
18612;SDS011;9436;52.152;21.032;2022-10-26T02:15:33;16.77;;;15.03;;
18612;SDS011;9436;52.152;21.032;2022-10-26T02:18:06;16.63;;;14.87;;
18612;SDS011;9436;52.152;21.032;2022-10-26T02:20:44;16.27;;;14.33;;
18612;SDS011;9436;52.152;21.032;2022-10-26T02:23:14;15.33;;;13.50;;
18612;SDS011;9436;52.152;21.032;2022-10-26T02:25:44;17.23;;;14.13;;
18612;SDS011;9436;52.152;21.032;2022-10-26T02:28:16;15.07;;;13.57;;
18612;SDS011;9436;52.152;21.032;2022-10-26T02:30:48;18.00;;;15.47;;
18612;SDS011;9436;52.152;21.032;2022-10-26T02:33:20;18.53;;;14.80;;
18612;SDS011;9436;52.152;21.032;2022-10-26T02:35:50;15.60;;;13.97;;
18612;SDS011;9436;52.152;21.032;2022-10-26T02:38:20;16.63;;;14.80;;
18612;SDS011;9436;52.152;21.032;2022-10-26T02:40:49;17.03;;;15.03;;
18612;SDS011;9436;52.152;21.032;2022-10-26T02:43:17;16.77;;;14.67;;
18612;SDS011;9436;52.152;21.032;2022-10-26T02:45:48;18.73;;;16.13;;
18612;SDS011;9436;52.152;21.032;2022-10-26T02:48:21;18.57;;;16.57;;
18612;SDS011;9436;52.152;21.032;2022-10-26T02:50:50;16.80;;;15.00;;
18612;SDS011;9436;52.152;21.032;2022-10-26T02:53:23;17.07;;;15.07;;
18612;SDS011;9436;52.152;21.032;2022-10-26T02:55:54;20.33;;;17.73;;
18612;SDS011;9436;52.152;21.032;2022-10-26T02:58:24;19.37;;;16.27;;
18612;SDS011;9436;52.152;21.032;2022-10-26T03:00:54;20.43;;;16.63;;
18612;SDS011;9436;52.152;21.032;2022-10-26T03:03:24;21.63;;;16.97;;
18612;SDS011;9436;52.152;21.032;2022-10-26T03:05:51;18.40;;;16.50;;
18612;SDS011;9436;52.152;21.032;2022-10-26T03:08:18;20.90;;;17.87;;
18612;SDS011;9436;52.152;21.032;2022-10-26T03:10:45;19.20;;;17.03;;
18612;SDS011;9436;52.152;21.032;2022-10-26T03:13:12;19.60;;;17.10;;
18612;SDS011;9436;52.152;21.032;2022-10-26T03:15:39;18.77;;;16.70;;
18612;SDS011;9436;52.152;21.032;2022-10-26T03:18:07;22.63;;;17.57;;
18612;SDS011;9436;52.152;21.032;2022-10-26T03:20:35;21.07;;;18.53;;
18612;SDS011;9436;52.152;21.032;2022-10-26T03:23:02;22.60;;;18.20;;
18612;SDS011;9436;52.152;21.032;2022-10-26T03:25:29;23.17;;;18.30;;
18612;SDS011;9436;52.152;21.032;2022-10-26T03:27:57;20.70;;;18.33;;
18612;SDS011;9436;52.152;21.032;2022-10-26T03:30:24;20.60;;;18.47;;
18612;SDS011;9436;52.152;21.032;2022-10-26T03:32:52;22.43;;;18.47;;
18612;SDS011;9436;52.152;21.032;2022-10-26T03:35:19;23.57;;;18.80;;
18612;SDS011;9436;52.152;21.032;2022-10-26T03:37:47;23.67;;;19.20;;
18612;SDS011;9436;52.152;21.032;2022-10-26T03:40:14;22.50;;;18.63;;
18612;SDS011;9436;52.152;21.032;2022-10-26T03:42:41;23.80;;;18.50;;
18612;SDS011;9436;52.152;21.032;2022-10-26T03:45:09;23.20;;;18.90;;
18612;SDS011;9436;52.152;21.032;2022-10-26T03:47:42;23.03;;;18.77;;
18612;SDS011;9436;52.152;21.032;2022-10-26T03:50:10;25.83;;;18.87;;
18612;SDS011;9436;52.152;21.032;2022-10-26T03:52:38;21.40;;;17.83;;
18612;SDS011;9436;52.152;21.032;2022-10-26T03:55:07;21.37;;;18.57;;
18612;SDS011;9436;52.152;21.032;2022-10-26T03:57:38;21.67;;;18.17;;
18612;SDS011;9436;52.152;21.032;2022-10-26T04:00:07;22.37;;;18.00;;
18612;SDS011;9436;52.152;21.032;2022-10-26T04:02:35;21.50;;;18.23;;
18612;SDS011;9436;52.152;21.032;2022-10-26T04:05:02;24.90;;;17.33;;
18612;SDS011;9436;52.152;21.032;2022-10-26T04:07:30;23.10;;;18.67;;
18612;SDS011;9436;52.152;21.032;2022-10-26T04:09:57;20.83;;;17.40;;
18612;SDS011;9436;52.152;21.032;2022-10-26T04:12:25;22.60;;;18.83;;
18612;SDS011;9436;52.152;21.032;2022-10-26T04:14:52;20.13;;;17.80;;
18612;SDS011;9436;52.152;21.032;2022-10-26T04:17:22;22.00;;;18.47;;
18612;SDS011;9436;52.152;21.032;2022-10-26T04:19:49;23.73;;;18.83;;
18612;SDS011;9436;52.152;21.032;2022-10-26T04:22:16;20.17;;;18.00;;
18612;SDS011;9436;52.152;21.032;2022-10-26T04:24:43;19.87;;;17.47;;
18612;SDS011;9436;52.152;21.032;2022-10-26T04:27:10;21.67;;;18.10;;
18612;SDS011;9436;52.152;21.032;2022-10-26T04:29:38;20.20;;;17.00;;
18612;SDS011;9436;52.152;21.032;2022-10-26T04:32:05;19.40;;;17.27;;
18612;SDS011;9436;52.152;21.032;2022-10-26T04:34:32;20.77;;;17.23;;
18612;SDS011;9436;52.152;21.032;2022-10-26T04:36:59;21.87;;;17.47;;
18612;SDS011;9436;52.152;21.032;2022-10-26T04:39:26;20.77;;;17.17;;
18612;SDS011;9436;52.152;21.032;2022-10-26T04:41:53;22.20;;;18.27;;
18612;SDS011;9436;52.152;21.032;2022-10-26T04:44:20;20.37;;;18.17;;
18612;SDS011;9436;52.152;21.032;2022-10-26T04:46:48;21.87;;;17.87;;
18612;SDS011;9436;52.152;21.032;2022-10-26T04:49:15;23.37;;;20.17;;
18612;SDS011;9436;52.152;21.032;2022-10-26T04:51:42;24.93;;;20.33;;
18612;SDS011;9436;52.152;21.032;2022-10-26T04:54:09;26.03;;;21.73;;
18612;SDS011;9436;52.152;21.032;2022-10-26T04:56:37;30.30;;;21.93;;
18612;SDS011;9436;52.152;21.032;2022-10-26T04:59:04;27.77;;;22.43;;
18612;SDS011;9436;52.152;21.032;2022-10-26T05:01:32;23.70;;;21.07;;
18612;SDS011;9436;52.152;21.032;2022-10-26T05:04:00;28.10;;;22.20;;
18612;SDS011;9436;52.152;21.032;2022-10-26T05:06:27;28.80;;;20.53;;
18612;SDS011;9436;52.152;21.032;2022-10-26T05:08:55;24.37;;;20.53;;
18612;SDS011;9436;52.152;21.032;2022-10-26T05:11:22;30.20;;;23.33;;
18612;SDS011;9436;52.152;21.032;2022-10-26T05:13:49;27.73;;;21.77;;
18612;SDS011;9436;52.152;21.032;2022-10-26T05:16:16;27.87;;;22.37;;
18612;SDS011;9436;52.152;21.032;2022-10-26T05:18:43;27.47;;;20.63;;
18612;SDS011;9436;52.152;21.032;2022-10-26T05:21:16;29.03;;;21.97;;
18612;SDS011;9436;52.152;21.032;2022-10-26T05:23:47;30.23;;;21.73;;
18612;SDS011;9436;52.152;21.032;2022-10-26T05:26:16;28.00;;;22.33;;
18612;SDS011;9436;52.152;21.032;2022-10-26T05:28:43;24.13;;;18.30;;
18612;SDS011;9436;52.152;21.032;2022-10-26T05:31:10;25.90;;;21.93;;
18612;SDS011;9436;52.152;21.032;2022-10-26T05:33:37;27.77;;;22.87;;
18612;SDS011;9436;52.152;21.032;2022-10-26T05:36:05;27.97;;;23.27;;
18612;SDS011;9436;52.152;21.032;2022-10-26T05:38:36;27.23;;;21.73;;
18612;SDS011;9436;52.152;21.032;2022-10-26T05:41:05;28.60;;;22.70;;
18612;SDS011;9436;52.152;21.032;2022-10-26T05:43:32;28.57;;;22.23;;
18612;SDS011;9436;52.152;21.032;2022-10-26T05:45:59;27.73;;;22.83;;
18612;SDS011;9436;52.152;21.032;2022-10-26T05:48:26;26.77;;;21.17;;
18612;SDS011;9436;52.152;21.032;2022-10-26T05:50:53;26.53;;;20.67;;
18612;SDS011;9436;52.152;21.032;2022-10-26T05:53:24;24.80;;;19.30;;
18612;SDS011;9436;52.152;21.032;2022-10-26T05:55:54;22.57;;;19.33;;
18612;SDS011;9436;52.152;21.032;2022-10-26T05:58:22;25.43;;;19.47;;
18612;SDS011;9436;52.152;21.032;2022-10-26T06:00:53;23.60;;;19.00;;
18612;SDS011;9436;52.152;21.032;2022-10-26T06:03:33;23.73;;;17.97;;
18612;SDS011;9436;52.152;21.032;2022-10-26T06:06:08;31.57;;;22.17;;
18612;SDS011;9436;52.152;21.032;2022-10-26T06:08:39;27.73;;;22.07;;
18612;SDS011;9436;52.152;21.032;2022-10-26T06:11:09;29.67;;;23.57;;
18612;SDS011;9436;52.152;21.032;2022-10-26T06:13:37;29.23;;;22.20;;
18612;SDS011;9436;52.152;21.032;2022-10-26T06:16:13;26.87;;;21.63;;
18612;SDS011;9436;52.152;21.032;2022-10-26T06:18:51;25.60;;;20.17;;
18612;SDS011;9436;52.152;21.032;2022-10-26T06:21:32;23.37;;;19.97;;
18612;SDS011;9436;52.152;21.032;2022-10-26T06:24:07;20.40;;;17.90;;
18612;SDS011;9436;52.152;21.032;2022-10-26T06:26:43;20.97;;;17.23;;
18612;SDS011;9436;52.152;21.032;2022-10-26T06:29:21;21.73;;;16.27;;
18612;SDS011;9436;52.152;21.032;2022-10-26T06:31:57;20.70;;;15.23;;
18612;SDS011;9436;52.152;21.032;2022-10-26T06:34:24;17.03;;;13.67;;
18612;SDS011;9436;52.152;21.032;2022-10-26T06:36:55;16.70;;;13.30;;
18612;SDS011;9436;52.152;21.032;2022-10-26T06:39:24;18.60;;;14.00;;
18612;SDS011;9436;52.152;21.032;2022-10-26T06:41:56;16.90;;;13.80;;
18612;SDS011;9436;52.152;21.032;2022-10-26T06:44:24;20.20;;;14.73;;
18612;SDS011;9436;52.152;21.032;2022-10-26T06:46:53;19.50;;;13.97;;
18612;SDS011;9436;52.152;21.032;2022-10-26T06:49:27;16.87;;;14.87;;
18612;SDS011;9436;52.152;21.032;2022-10-26T06:51:58;21.70;;;17.70;;
18612;SDS011;9436;52.152;21.032;2022-10-26T06:54:29;19.73;;;16.90;;
18612;SDS011;9436;52.152;21.032;2022-10-26T06:57:11;25.13;;;18.70;;
18612;SDS011;9436;52.152;21.032;2022-10-26T06:59:42;22.43;;;17.47;;
18612;SDS011;9436;52.152;21.032;2022-10-26T07:02:12;23.23;;;18.17;;
18612;SDS011;9436;52.152;21.032;2022-10-26T07:04:39;22.50;;;17.90;;
18612;SDS011;9436;52.152;21.032;2022-10-26T07:07:07;22.27;;;18.20;;
18612;SDS011;9436;52.152;21.032;2022-10-26T07:09:35;20.40;;;16.80;;
18612;SDS011;9436;52.152;21.032;2022-10-26T07:12:02;23.77;;;17.00;;
18612;SDS011;9436;52.152;21.032;2022-10-26T07:14:30;23.93;;;17.80;;
18612;SDS011;9436;52.152;21.032;2022-10-26T07:16:57;23.40;;;17.47;;
18612;SDS011;9436;52.152;21.032;2022-10-26T07:19:24;23.60;;;16.83;;
18612;SDS011;9436;52.152;21.032;2022-10-26T07:21:52;23.80;;;17.53;;
18612;SDS011;9436;52.152;21.032;2022-10-26T07:24:20;22.40;;;16.70;;
18612;SDS011;9436;52.152;21.032;2022-10-26T07:26:47;26.03;;;17.53;;
18612;SDS011;9436;52.152;21.032;2022-10-26T07:29:15;19.97;;;16.17;;
18612;SDS011;9436;52.152;21.032;2022-10-26T07:31:43;20.00;;;15.00;;
18612;SDS011;9436;52.152;21.032;2022-10-26T07:34:12;20.83;;;15.27;;
18612;SDS011;9436;52.152;21.032;2022-10-26T07:36:39;18.37;;;14.77;;
18612;SDS011;9436;52.152;21.032;2022-10-26T07:39:06;19.27;;;14.77;;
18612;SDS011;9436;52.152;21.032;2022-10-26T07:41:33;16.40;;;13.90;;
18612;SDS011;9436;52.152;21.032;2022-10-26T07:44:00;18.00;;;13.87;;
18612;SDS011;9436;52.152;21.032;2022-10-26T07:46:27;16.23;;;13.20;;
18612;SDS011;9436;52.152;21.032;2022-10-26T07:48:56;14.97;;;12.63;;
18612;SDS011;9436;52.152;21.032;2022-10-26T07:53:51;15.47;;;12.40;;
18612;SDS011;9436;52.152;21.032;2022-10-26T07:56:18;24.37;;;12.90;;
18612;SDS011;9436;52.152;21.032;2022-10-26T07:58:46;26.53;;;11.73;;
18612;SDS011;9436;52.152;21.032;2022-10-26T08:01:14;15.37;;;12.30;;
18612;SDS011;9436;52.152;21.032;2022-10-26T08:03:41;15.07;;;12.30;;
18612;SDS011;9436;52.152;21.032;2022-10-26T08:06:09;14.33;;;12.83;;
18612;SDS011;9436;52.152;21.032;2022-10-26T08:08:37;15.33;;;12.23;;
18612;SDS011;9436;52.152;21.032;2022-10-26T08:11:04;16.43;;;12.80;;
18612;SDS011;9436;52.152;21.032;2022-10-26T08:13:31;15.63;;;12.43;;
18612;SDS011;9436;52.152;21.032;2022-10-26T08:16:00;15.30;;;12.83;;
18612;SDS011;9436;52.152;21.032;2022-10-26T08:18:28;19.20;;;14.50;;
18612;SDS011;9436;52.152;21.032;2022-10-26T08:21:00;18.93;;;14.07;;
18612;SDS011;9436;52.152;21.032;2022-10-26T08:23:29;16.80;;;13.47;;
18612;SDS011;9436;52.152;21.032;2022-10-26T08:25:57;16.80;;;12.80;;
18612;SDS011;9436;52.152;21.032;2022-10-26T08:28:24;17.40;;;14.13;;
18612;SDS011;9436;52.152;21.032;2022-10-26T08:30:51;19.23;;;14.03;;
18612;SDS011;9436;52.152;21.032;2022-10-26T08:33:19;18.30;;;13.73;;
18612;SDS011;9436;52.152;21.032;2022-10-26T08:35:47;18.70;;;14.73;;
18612;SDS011;9436;52.152;21.032;2022-10-26T08:38:14;22.13;;;16.33;;
18612;SDS011;9436;52.152;21.032;2022-10-26T08:40:42;19.60;;;15.33;;
18612;SDS011;9436;52.152;21.032;2022-10-26T08:43:11;24.40;;;17.43;;
18612;SDS011;9436;52.152;21.032;2022-10-26T08:45:44;24.40;;;16.90;;
18612;SDS011;9436;52.152;21.032;2022-10-26T08:48:16;22.40;;;17.17;;
18612;SDS011;9436;52.152;21.032;2022-10-26T08:50:49;22.20;;;17.03;;
18612;SDS011;9436;52.152;21.032;2022-10-26T08:53:19;21.60;;;17.30;;
18612;SDS011;9436;52.152;21.032;2022-10-26T08:55:52;25.93;;;17.90;;
18612;SDS011;9436;52.152;21.032;2022-10-26T08:58:24;19.97;;;14.90;;
18612;SDS011;9436;52.152;21.032;2022-10-26T09:00:53;21.10;;;15.83;;
18612;SDS011;9436;52.152;21.032;2022-10-26T09:03:20;20.50;;;15.47;;
18612;SDS011;9436;52.152;21.032;2022-10-26T09:05:52;21.40;;;15.43;;
18612;SDS011;9436;52.152;21.032;2022-10-26T09:08:30;19.40;;;15.03;;
18612;SDS011;9436;52.152;21.032;2022-10-26T09:11:07;18.77;;;15.00;;
18612;SDS011;9436;52.152;21.032;2022-10-26T09:13:47;19.10;;;14.97;;
18612;SDS011;9436;52.152;21.032;2022-10-26T09:16:26;20.50;;;14.53;;
18612;SDS011;9436;52.152;21.032;2022-10-26T09:18:58;19.37;;;14.43;;
18612;SDS011;9436;52.152;21.032;2022-10-26T09:21:36;19.67;;;15.40;;
18612;SDS011;9436;52.152;21.032;2022-10-26T09:24:11;21.30;;;15.80;;
18612;SDS011;9436;52.152;21.032;2022-10-26T09:26:49;18.93;;;15.53;;
18612;SDS011;9436;52.152;21.032;2022-10-26T09:29:20;19.20;;;14.93;;
18612;SDS011;9436;52.152;21.032;2022-10-26T09:31:52;18.60;;;12.53;;
18612;SDS011;9436;52.152;21.032;2022-10-26T09:34:24;12.73;;;10.73;;
18612;SDS011;9436;52.152;21.032;2022-10-26T09:36:56;13.40;;;11.07;;
18612;SDS011;9436;52.152;21.032;2022-10-26T09:39:32;12.20;;;10.00;;
18612;SDS011;9436;52.152;21.032;2022-10-26T09:42:10;13.60;;;10.37;;
18612;SDS011;9436;52.152;21.032;2022-10-26T09:44:43;13.77;;;10.50;;
18612;SDS011;9436;52.152;21.032;2022-10-26T09:47:19;12.23;;;10.43;;
18612;SDS011;9436;52.152;21.032;2022-10-26T09:49:55;12.90;;;10.33;;
18612;SDS011;9436;52.152;21.032;2022-10-26T09:52:26;14.90;;;10.13;;
18612;SDS011;9436;52.152;21.032;2022-10-26T09:54:53;11.97;;;9.90;;
18612;SDS011;9436;52.152;21.032;2022-10-26T09:57:21;14.67;;;10.10;;
18612;SDS011;9436;52.152;21.032;2022-10-26T09:59:50;13.70;;;10.00;;
18612;SDS011;9436;52.152;21.032;2022-10-26T10:02:35;12.63;;;10.17;;
18612;SDS011;9436;52.152;21.032;2022-10-26T10:07:47;13.63;;;11.37;;
18612;SDS011;9436;52.152;21.032;2022-10-26T10:10:15;15.17;;;12.57;;
18612;SDS011;9436;52.152;21.032;2022-10-26T10:12:45;13.77;;;12.00;;
18612;SDS011;9436;52.152;21.032;2022-10-26T10:15:18;13.63;;;11.27;;
18612;SDS011;9436;52.152;21.032;2022-10-26T10:17:47;13.57;;;11.73;;
18612;SDS011;9436;52.152;21.032;2022-10-26T10:20:17;15.20;;;12.83;;
18612;SDS011;9436;52.152;21.032;2022-10-26T10:22:52;14.50;;;12.10;;
18612;SDS011;9436;52.152;21.032;2022-10-26T10:25:33;16.10;;;12.33;;
18612;SDS011;9436;52.152;21.032;2022-10-26T10:28:16;14.97;;;12.40;;
18612;SDS011;9436;52.152;21.032;2022-10-26T10:30:51;16.57;;;11.97;;
18612;SDS011;9436;52.152;21.032;2022-10-26T10:33:19;17.80;;;12.17;;
18612;SDS011;9436;52.152;21.032;2022-10-26T10:35:47;14.40;;;11.77;;
18612;SDS011;9436;52.152;21.032;2022-10-26T10:38:17;14.90;;;11.57;;
18612;SDS011;9436;52.152;21.032;2022-10-26T10:40:50;15.57;;;12.77;;
18612;SDS011;9436;52.152;21.032;2022-10-26T10:43:21;16.97;;;13.03;;
18612;SDS011;9436;52.152;21.032;2022-10-26T10:45:51;17.40;;;13.37;;
18612;SDS011;9436;52.152;21.032;2022-10-26T10:48:21;17.30;;;13.00;;
18612;SDS011;9436;52.152;21.032;2022-10-26T10:50:50;17.60;;;12.77;;
18612;SDS011;9436;52.152;21.032;2022-10-26T10:53:20;17.77;;;12.90;;
18612;SDS011;9436;52.152;21.032;2022-10-26T10:56:01;14.30;;;12.80;;
18612;SDS011;9436;52.152;21.032;2022-10-26T10:58:45;18.57;;;13.17;;
18612;SDS011;9436;52.152;21.032;2022-10-26T11:01:21;15.30;;;12.03;;
18612;SDS011;9436;52.152;21.032;2022-10-26T11:06:46;17.73;;;12.97;;
18612;SDS011;9436;52.152;21.032;2022-10-26T11:09:15;19.87;;;14.17;;
18612;SDS011;9436;52.152;21.032;2022-10-26T11:11:45;14.67;;;12.07;;
18612;SDS011;9436;52.152;21.032;2022-10-26T11:14:17;16.27;;;13.13;;
18612;SDS011;9436;52.152;21.032;2022-10-26T11:16:51;16.53;;;12.97;;
18612;SDS011;9436;52.152;21.032;2022-10-26T11:19:23;16.83;;;12.37;;
18612;SDS011;9436;52.152;21.032;2022-10-26T11:21:53;19.67;;;13.47;;
18612;SDS011;9436;52.152;21.032;2022-10-26T11:24:22;15.40;;;12.93;;
18612;SDS011;9436;52.152;21.032;2022-10-26T11:26:54;18.10;;;13.33;;
18612;SDS011;9436;52.152;21.032;2022-10-26T11:29:28;18.03;;;12.50;;
18612;SDS011;9436;52.152;21.032;2022-10-26T11:32:01;16.70;;;13.50;;
18612;SDS011;9436;52.152;21.032;2022-10-26T11:34:35;17.93;;;12.37;;
18612;SDS011;9436;52.152;21.032;2022-10-26T11:37:10;15.57;;;12.80;;
18612;SDS011;9436;52.152;21.032;2022-10-26T11:39:43;17.57;;;12.00;;
18612;SDS011;9436;52.152;21.032;2022-10-26T11:42:19;15.07;;;11.17;;
18612;SDS011;9436;52.152;21.032;2022-10-26T11:44:54;17.97;;;11.80;;
18612;SDS011;9436;52.152;21.032;2022-10-26T11:47:27;15.73;;;13.37;;
18612;SDS011;9436;52.152;21.032;2022-10-26T11:50:02;17.37;;;12.53;;
18612;SDS011;9436;52.152;21.032;2022-10-26T11:52:33;14.83;;;11.83;;
18612;SDS011;9436;52.152;21.032;2022-10-26T11:55:08;14.73;;;12.30;;
18612;SDS011;9436;52.152;21.032;2022-10-26T11:57:36;13.73;;;11.97;;
18612;SDS011;9436;52.152;21.032;2022-10-26T12:00:06;14.20;;;12.70;;
18612;SDS011;9436;52.152;21.032;2022-10-26T12:02:40;17.20;;;12.67;;
18612;SDS011;9436;52.152;21.032;2022-10-26T12:05:16;15.30;;;12.50;;
18612;SDS011;9436;52.152;21.032;2022-10-26T12:07:47;16.57;;;12.17;;
18612;SDS011;9436;52.152;21.032;2022-10-26T12:10:23;16.73;;;12.57;;
18612;SDS011;9436;52.152;21.032;2022-10-26T12:12:54;15.20;;;12.93;;
18612;SDS011;9436;52.152;21.032;2022-10-26T12:15:29;15.33;;;12.57;;
18612;SDS011;9436;52.152;21.032;2022-10-26T12:18:05;16.83;;;12.60;;
18612;SDS011;9436;52.152;21.032;2022-10-26T12:20:48;16.60;;;12.47;;
18612;SDS011;9436;52.152;21.032;2022-10-26T12:23:19;16.27;;;13.33;;
18612;SDS011;9436;52.152;21.032;2022-10-26T12:25:48;20.43;;;12.97;;
18612;SDS011;9436;52.152;21.032;2022-10-26T12:34:24;16.87;;;13.90;;
18612;SDS011;9436;52.152;21.032;2022-10-26T12:37:34;15.97;;;13.47;;
18612;SDS011;9436;52.152;21.032;2022-10-26T12:43:36;15.97;;;13.17;;
18612;SDS011;9436;52.152;21.032;2022-10-26T12:52:32;14.03;;;12.50;;
18612;SDS011;9436;52.152;21.032;2022-10-26T12:58:45;15.57;;;12.80;;
18612;SDS011;9436;52.152;21.032;2022-10-26T13:01:36;19.07;;;12.57;;
18612;SDS011;9436;52.152;21.032;2022-10-26T13:07:24;14.73;;;12.23;;
18612;SDS011;9436;52.152;21.032;2022-10-26T13:10:16;19.13;;;12.47;;
18612;SDS011;9436;52.152;21.032;2022-10-26T13:12:47;17.13;;;13.40;;
18612;SDS011;9436;52.152;21.032;2022-10-26T13:15:21;19.80;;;12.07;;
18612;SDS011;9436;52.152;21.032;2022-10-26T13:17:55;17.80;;;11.67;;
18612;SDS011;9436;52.152;21.032;2022-10-26T13:20:33;15.00;;;12.20;;
18612;SDS011;9436;52.152;21.032;2022-10-26T13:23:02;16.30;;;12.73;;
18612;SDS011;9436;52.152;21.032;2022-10-26T13:25:42;18.67;;;12.93;;
18612;SDS011;9436;52.152;21.032;2022-10-26T13:28:32;17.00;;;13.20;;
18612;SDS011;9436;52.152;21.032;2022-10-26T13:31:23;16.60;;;12.50;;
18612;SDS011;9436;52.152;21.032;2022-10-26T13:34:14;17.83;;;13.77;;
18612;SDS011;9436;52.152;21.032;2022-10-26T13:36:45;17.47;;;13.43;;
18612;SDS011;9436;52.152;21.032;2022-10-26T13:39:19;18.10;;;13.63;;
18612;SDS011;9436;52.152;21.032;2022-10-26T13:41:52;18.93;;;13.63;;
18612;SDS011;9436;52.152;21.032;2022-10-26T13:44:21;17.10;;;12.53;;
18612;SDS011;9436;52.152;21.032;2022-10-26T13:46:53;17.80;;;13.83;;
18612;SDS011;9436;52.152;21.032;2022-10-26T13:49:24;17.53;;;14.03;;
18612;SDS011;9436;52.152;21.032;2022-10-26T13:51:55;20.80;;;14.77;;
18612;SDS011;9436;52.152;21.032;2022-10-26T13:54:29;19.53;;;14.77;;
18612;SDS011;9436;52.152;21.032;2022-10-26T13:57:09;21.87;;;14.77;;
18612;SDS011;9436;52.152;21.032;2022-10-26T13:59:42;20.93;;;14.33;;
18612;SDS011;9436;52.152;21.032;2022-10-26T14:02:15;19.37;;;13.57;;
18612;SDS011;9436;52.152;21.032;2022-10-26T14:04:47;17.00;;;13.97;;
18612;SDS011;9436;52.152;21.032;2022-10-26T14:07:18;14.27;;;12.33;;
18612;SDS011;9436;52.152;21.032;2022-10-26T14:09:49;16.37;;;13.43;;
18612;SDS011;9436;52.152;21.032;2022-10-26T14:12:19;15.60;;;12.17;;
18612;SDS011;9436;52.152;21.032;2022-10-26T14:14:47;15.53;;;11.73;;
18612;SDS011;9436;52.152;21.032;2022-10-26T14:17:17;14.10;;;11.47;;
18612;SDS011;9436;52.152;21.032;2022-10-26T14:19:49;13.97;;;11.03;;
18612;SDS011;9436;52.152;21.032;2022-10-26T14:22:18;12.23;;;10.70;;
18612;SDS011;9436;52.152;21.032;2022-10-26T14:24:50;14.07;;;11.23;;
18612;SDS011;9436;52.152;21.032;2022-10-26T14:27:21;16.50;;;11.30;;
18612;SDS011;9436;52.152;21.032;2022-10-26T14:29:50;15.60;;;10.87;;
18612;SDS011;9436;52.152;21.032;2022-10-26T14:32:19;14.00;;;10.50;;
18612;SDS011;9436;52.152;21.032;2022-10-26T14:34:47;16.20;;;11.57;;
18612;SDS011;9436;52.152;21.032;2022-10-26T14:37:17;14.40;;;11.30;;
18612;SDS011;9436;52.152;21.032;2022-10-26T14:39:55;12.63;;;11.33;;
18612;SDS011;9436;52.152;21.032;2022-10-26T14:42:25;16.93;;;11.57;;
18612;SDS011;9436;52.152;21.032;2022-10-26T14:44:55;14.00;;;11.50;;
18612;SDS011;9436;52.152;21.032;2022-10-26T14:47:23;14.90;;;12.03;;
18612;SDS011;9436;52.152;21.032;2022-10-26T14:49:52;16.90;;;12.77;;
18612;SDS011;9436;52.152;21.032;2022-10-26T14:52:21;17.38;;;12.95;;
18612;SDS011;9436;52.152;21.032;2022-10-26T14:54:55;15.83;;;12.30;;
18612;SDS011;9436;52.152;21.032;2022-10-26T14:57:34;16.43;;;12.67;;
18612;SDS011;9436;52.152;21.032;2022-10-26T15:00:09;15.97;;;11.77;;
18612;SDS011;9436;52.152;21.032;2022-10-26T15:02:40;13.03;;;10.70;;
18612;SDS011;9436;52.152;21.032;2022-10-26T15:05:19;13.67;;;10.53;;
18612;SDS011;9436;52.152;21.032;2022-10-26T15:07:50;13.20;;;11.23;;
18612;SDS011;9436;52.152;21.032;2022-10-26T15:13:21;16.07;;;12.37;;
18612;SDS011;9436;52.152;21.032;2022-10-26T15:15:53;15.13;;;11.90;;
18612;SDS011;9436;52.152;21.032;2022-10-26T15:18:22;14.83;;;11.53;;
18612;SDS011;9436;52.152;21.032;2022-10-26T15:20:51;13.10;;;11.57;;